sensor_id;sensor_type;location;lat;lon;timestamp;temperature;humidity
18384;DHT22;9318;48.644;9.456;2022-12-18T00:01:16;-5.00;99.90
18384;DHT22;9318;48.644;9.456;2022-12-18T00:03:44;-5.00;99.90
18384;DHT22;9318;48.644;9.456;2022-12-18T00:06:11;-5.20;99.90
18384;DHT22;9318;48.644;9.456;2022-12-18T00:08:39;-5.10;99.90
18384;DHT22;9318;48.644;9.456;2022-12-18T00:11:08;-5.20;99.90
18384;DHT22;9318;48.644;9.456;2022-12-18T00:13:37;-5.00;99.90
18384;DHT22;9318;48.644;9.456;2022-12-18T00:16:07;-5.00;99.90
18384;DHT22;9318;48.644;9.456;2022-12-18T00:18:34;-5.00;99.90
18384;DHT22;9318;48.644;9.456;2022-12-18T00:21:03;-5.00;99.90
18384;DHT22;9318;48.644;9.456;2022-12-18T00:23:34;-4.60;99.90
18384;DHT22;9318;48.644;9.456;2022-12-18T00:26:03;-4.20;99.90
18384;DHT22;9318;48.644;9.456;2022-12-18T00:28:31;-4.00;99.90
18384;DHT22;9318;48.644;9.456;2022-12-18T00:31:04;-4.00;99.90
18384;DHT22;9318;48.644;9.456;2022-12-18T00:33:32;-3.90;99.90
18384;DHT22;9318;48.644;9.456;2022-12-18T00:36:01;-3.50;99.90
18384;DHT22;9318;48.644;9.456;2022-12-18T00:38:28;-3.00;99.90
18384;DHT22;9318;48.644;9.456;2022-12-18T00:40:55;-3.00;99.90
18384;DHT22;9318;48.644;9.456;2022-12-18T00:43:22;-3.30;99.90
18384;DHT22;9318;48.644;9.456;2022-12-18T00:45:49;-3.50;99.90
18384;DHT22;9318;48.644;9.456;2022-12-18T00:48:17;-3.60;99.90
18384;DHT22;9318;48.644;9.456;2022-12-18T00:50:44;-3.80;99.90
18384;DHT22;9318;48.644;9.456;2022-12-18T00:53:12;-3.90;99.90
18384;DHT22;9318;48.644;9.456;2022-12-18T00:55:40;-3.90;99.90
18384;DHT22;9318;48.644;9.456;2022-12-18T00:58:08;-3.80;99.90
18384;DHT22;9318;48.644;9.456;2022-12-18T01:00:36;-3.90;99.90
18384;DHT22;9318;48.644;9.456;2022-12-18T01:03:04;-4.00;99.90
18384;DHT22;9318;48.644;9.456;2022-12-18T01:05:33;-4.00;99.90
18384;DHT22;9318;48.644;9.456;2022-12-18T01:08:01;-4.10;99.90
18384;DHT22;9318;48.644;9.456;2022-12-18T01:10:28;-4.10;99.90
18384;DHT22;9318;48.644;9.456;2022-12-18T01:12:55;-4.40;99.90
18384;DHT22;9318;48.644;9.456;2022-12-18T01:15:23;-4.70;99.90
18384;DHT22;9318;48.644;9.456;2022-12-18T01:17:52;-5.10;99.90
18384;DHT22;9318;48.644;9.456;2022-12-18T01:20:19;-5.30;99.90
18384;DHT22;9318;48.644;9.456;2022-12-18T01:22:48;-5.40;99.90
18384;DHT22;9318;48.644;9.456;2022-12-18T01:25:15;-5.90;99.90
18384;DHT22;9318;48.644;9.456;2022-12-18T01:27:43;-6.20;99.90
18384;DHT22;9318;48.644;9.456;2022-12-18T01:30:11;-6.50;99.90
18384;DHT22;9318;48.644;9.456;2022-12-18T01:32:38;-6.60;99.90
18384;DHT22;9318;48.644;9.456;2022-12-18T01:35:06;-6.70;99.90
18384;DHT22;9318;48.644;9.456;2022-12-18T01:37:34;-6.90;99.90
18384;DHT22;9318;48.644;9.456;2022-12-18T01:40:03;-7.00;99.90
18384;DHT22;9318;48.644;9.456;2022-12-18T01:42:31;-6.80;99.90
18384;DHT22;9318;48.644;9.456;2022-12-18T01:45:08;-6.70;99.90
18384;DHT22;9318;48.644;9.456;2022-12-18T01:47:50;-6.60;99.90
18384;DHT22;9318;48.644;9.456;2022-12-18T01:50:23;-6.30;99.90
18384;DHT22;9318;48.644;9.456;2022-12-18T01:52:53;-6.30;99.90
18384;DHT22;9318;48.644;9.456;2022-12-18T01:55:25;-6.30;99.90
18384;DHT22;9318;48.644;9.456;2022-12-18T01:57:55;-6.30;99.90
18384;DHT22;9318;48.644;9.456;2022-12-18T02:00:24;-6.30;99.90
18384;DHT22;9318;48.644;9.456;2022-12-18T02:02:52;-6.10;99.90
18384;DHT22;9318;48.644;9.456;2022-12-18T02:05:26;-6.00;99.90
18384;DHT22;9318;48.644;9.456;2022-12-18T02:08:00;-6.00;99.90
18384;DHT22;9318;48.644;9.456;2022-12-18T02:10:37;-6.10;99.90
18384;DHT22;9318;48.644;9.456;2022-12-18T02:13:12;-5.90;99.90
18384;DHT22;9318;48.644;9.456;2022-12-18T02:15:46;-5.60;99.90
18384;DHT22;9318;48.644;9.456;2022-12-18T02:18:20;-5.30;99.90
18384;DHT22;9318;48.644;9.456;2022-12-18T02:21:01;-5.10;99.90
18384;DHT22;9318;48.644;9.456;2022-12-18T02:23:45;-5.30;99.90
18384;DHT22;9318;48.644;9.456;2022-12-18T02:26:21;-5.30;99.90
18384;DHT22;9318;48.644;9.456;2022-12-18T02:28:55;-5.50;99.90
18384;DHT22;9318;48.644;9.456;2022-12-18T02:31:27;-5.60;99.90
18384;DHT22;9318;48.644;9.456;2022-12-18T02:33:58;-5.70;99.90
18384;DHT22;9318;48.644;9.456;2022-12-18T02:36:27;-6.00;99.90
18384;DHT22;9318;48.644;9.456;2022-12-18T02:38:56;-6.40;99.90
18384;DHT22;9318;48.644;9.456;2022-12-18T02:41:28;-6.60;99.90
18384;DHT22;9318;48.644;9.456;2022-12-18T02:43:56;-6.70;99.90
18384;DHT22;9318;48.644;9.456;2022-12-18T02:46:31;-6.90;99.90
18384;DHT22;9318;48.644;9.456;2022-12-18T02:49:08;-7.00;99.90
18384;DHT22;9318;48.644;9.456;2022-12-18T02:51:43;-7.30;99.90
18384;DHT22;9318;48.644;9.456;2022-12-18T02:54:21;-7.50;99.90
18384;DHT22;9318;48.644;9.456;2022-12-18T02:56:54;-7.70;99.90
18384;DHT22;9318;48.644;9.456;2022-12-18T02:59:29;-7.60;99.90
18384;DHT22;9318;48.644;9.456;2022-12-18T03:02:02;-7.60;99.90
18384;DHT22;9318;48.644;9.456;2022-12-18T03:04:37;-7.40;99.90
18384;DHT22;9318;48.644;9.456;2022-12-18T03:07:10;-7.20;99.90
18384;DHT22;9318;48.644;9.456;2022-12-18T03:09:42;-7.10;99.90
18384;DHT22;9318;48.644;9.456;2022-12-18T03:12:15;-6.90;99.90
18384;DHT22;9318;48.644;9.456;2022-12-18T03:14:54;-7.10;99.90
18384;DHT22;9318;48.644;9.456;2022-12-18T03:17:25;-7.10;99.90
18384;DHT22;9318;48.644;9.456;2022-12-18T03:19:55;-7.10;99.90
18384;DHT22;9318;48.644;9.456;2022-12-18T03:22:24;-6.90;99.90
18384;DHT22;9318;48.644;9.456;2022-12-18T03:28:14;-6.90;99.90
18384;DHT22;9318;48.644;9.456;2022-12-18T03:30:44;-7.00;99.90
18384;DHT22;9318;48.644;9.456;2022-12-18T03:33:16;-7.10;99.90
18384;DHT22;9318;48.644;9.456;2022-12-18T03:35:45;-7.20;99.90
18384;DHT22;9318;48.644;9.456;2022-12-18T03:38:13;-7.40;99.90
18384;DHT22;9318;48.644;9.456;2022-12-18T03:40:49;-7.40;99.90
18384;DHT22;9318;48.644;9.456;2022-12-18T03:43:26;-7.50;99.90
18384;DHT22;9318;48.644;9.456;2022-12-18T03:46:02;-7.60;99.90
18384;DHT22;9318;48.644;9.456;2022-12-18T03:48:37;-7.70;99.90
18384;DHT22;9318;48.644;9.456;2022-12-18T03:51:08;-7.80;99.90
18384;DHT22;9318;48.644;9.456;2022-12-18T03:53:43;-7.90;99.90
18384;DHT22;9318;48.644;9.456;2022-12-18T03:56:15;-8.00;99.90
18384;DHT22;9318;48.644;9.456;2022-12-18T03:58:46;-8.10;99.90
18384;DHT22;9318;48.644;9.456;2022-12-18T04:01:15;-8.20;99.90
18384;DHT22;9318;48.644;9.456;2022-12-18T04:03:44;-8.10;99.90
18384;DHT22;9318;48.644;9.456;2022-12-18T04:06:14;-7.90;99.90
18384;DHT22;9318;48.644;9.456;2022-12-18T04:08:42;-7.60;99.90
18384;DHT22;9318;48.644;9.456;2022-12-18T04:11:09;-7.30;99.90
18384;DHT22;9318;48.644;9.456;2022-12-18T04:13:37;-7.10;99.90
18384;DHT22;9318;48.644;9.456;2022-12-18T04:16:07;-7.30;99.90
18384;DHT22;9318;48.644;9.456;2022-12-18T04:18:36;-7.60;99.90
18384;DHT22;9318;48.644;9.456;2022-12-18T04:21:03;-7.80;99.90
18384;DHT22;9318;48.644;9.456;2022-12-18T04:23:30;-8.10;99.90
18384;DHT22;9318;48.644;9.456;2022-12-18T04:25:57;-8.40;99.90
18384;DHT22;9318;48.644;9.456;2022-12-18T04:28:24;-8.70;99.90
18384;DHT22;9318;48.644;9.456;2022-12-18T04:30:51;-8.70;99.90
18384;DHT22;9318;48.644;9.456;2022-12-18T04:33:20;-8.80;99.90
18384;DHT22;9318;48.644;9.456;2022-12-18T04:35:47;-8.60;99.90
18384;DHT22;9318;48.644;9.456;2022-12-18T04:38:14;-8.30;99.90
18384;DHT22;9318;48.644;9.456;2022-12-18T04:40:41;-8.10;99.90
18384;DHT22;9318;48.644;9.456;2022-12-18T04:43:09;-8.00;99.90
18384;DHT22;9318;48.644;9.456;2022-12-18T04:45:36;-7.80;99.90
18384;DHT22;9318;48.644;9.456;2022-12-18T04:48:04;-7.70;99.90
18384;DHT22;9318;48.644;9.456;2022-12-18T04:50:32;-7.70;99.90
18384;DHT22;9318;48.644;9.456;2022-12-18T04:52:59;-7.70;99.90
18384;DHT22;9318;48.644;9.456;2022-12-18T04:55:26;-7.60;99.90
18384;DHT22;9318;48.644;9.456;2022-12-18T04:57:53;-7.40;99.90
18384;DHT22;9318;48.644;9.456;2022-12-18T05:00:21;-7.20;99.90
18384;DHT22;9318;48.644;9.456;2022-12-18T05:02:48;-7.00;99.90
18384;DHT22;9318;48.644;9.456;2022-12-18T05:05:15;-6.90;99.90
18384;DHT22;9318;48.644;9.456;2022-12-18T05:07:44;-6.80;99.90
18384;DHT22;9318;48.644;9.456;2022-12-18T05:10:11;-6.50;99.90
18384;DHT22;9318;48.644;9.456;2022-12-18T05:12:38;-6.40;99.90
18384;DHT22;9318;48.644;9.456;2022-12-18T05:15:24;-6.40;99.90
18384;DHT22;9318;48.644;9.456;2022-12-18T05:17:51;-6.30;99.90
18384;DHT22;9318;48.644;9.456;2022-12-18T05:20:19;-6.30;99.90
18384;DHT22;9318;48.644;9.456;2022-12-18T05:22:47;-6.40;99.90
18384;DHT22;9318;48.644;9.456;2022-12-18T05:25:14;-6.60;99.90
18384;DHT22;9318;48.644;9.456;2022-12-18T05:27:42;-6.70;99.90
18384;DHT22;9318;48.644;9.456;2022-12-18T05:30:09;-7.10;99.90
18384;DHT22;9318;48.644;9.456;2022-12-18T05:32:37;-7.10;99.90
18384;DHT22;9318;48.644;9.456;2022-12-18T05:35:06;-7.20;99.90
18384;DHT22;9318;48.644;9.456;2022-12-18T05:37:34;-7.10;99.90
18384;DHT22;9318;48.644;9.456;2022-12-18T05:40:03;-7.00;99.90
18384;DHT22;9318;48.644;9.456;2022-12-18T05:42:31;-7.10;99.90
18384;DHT22;9318;48.644;9.456;2022-12-18T05:44:58;-7.00;99.90
18384;DHT22;9318;48.644;9.456;2022-12-18T05:47:26;-7.00;99.90
18384;DHT22;9318;48.644;9.456;2022-12-18T05:49:53;-7.10;99.90
18384;DHT22;9318;48.644;9.456;2022-12-18T05:52:20;-7.10;99.90
18384;DHT22;9318;48.644;9.456;2022-12-18T05:54:47;-6.90;99.90
18384;DHT22;9318;48.644;9.456;2022-12-18T05:57:16;-6.70;99.90
18384;DHT22;9318;48.644;9.456;2022-12-18T05:59:43;-6.50;99.90
18384;DHT22;9318;48.644;9.456;2022-12-18T06:02:10;-6.30;99.90
18384;DHT22;9318;48.644;9.456;2022-12-18T06:04:37;-6.20;99.90
18384;DHT22;9318;48.644;9.456;2022-12-18T06:07:04;-6.10;99.90
18384;DHT22;9318;48.644;9.456;2022-12-18T06:09:32;-6.10;99.90
18384;DHT22;9318;48.644;9.456;2022-12-18T06:11:59;-6.00;99.90
18384;DHT22;9318;48.644;9.456;2022-12-18T06:14:28;-6.10;99.90
18384;DHT22;9318;48.644;9.456;2022-12-18T06:16:55;-6.20;99.90
18384;DHT22;9318;48.644;9.456;2022-12-18T06:19:22;-6.20;99.90
18384;DHT22;9318;48.644;9.456;2022-12-18T06:21:49;-6.40;99.90
18384;DHT22;9318;48.644;9.456;2022-12-18T06:24:17;-6.70;99.90
18384;DHT22;9318;48.644;9.456;2022-12-18T06:26:44;-6.90;99.90
18384;DHT22;9318;48.644;9.456;2022-12-18T06:29:11;-7.10;99.90
18384;DHT22;9318;48.644;9.456;2022-12-18T06:31:39;-7.30;99.90
18384;DHT22;9318;48.644;9.456;2022-12-18T06:34:07;-7.40;99.90
18384;DHT22;9318;48.644;9.456;2022-12-18T06:36:34;-7.80;99.90
18384;DHT22;9318;48.644;9.456;2022-12-18T06:39:01;-8.10;99.90
18384;DHT22;9318;48.644;9.456;2022-12-18T06:41:28;-8.30;99.90
18384;DHT22;9318;48.644;9.456;2022-12-18T06:43:57;-8.40;99.90
18384;DHT22;9318;48.644;9.456;2022-12-18T06:46:24;-8.70;99.90
18384;DHT22;9318;48.644;9.456;2022-12-18T06:48:53;-8.40;99.90
18384;DHT22;9318;48.644;9.456;2022-12-18T06:51:21;-8.40;99.90
18384;DHT22;9318;48.644;9.456;2022-12-18T06:53:49;-8.10;99.90
18384;DHT22;9318;48.644;9.456;2022-12-18T06:56:16;-7.80;99.90
18384;DHT22;9318;48.644;9.456;2022-12-18T06:58:43;-7.40;99.90
18384;DHT22;9318;48.644;9.456;2022-12-18T07:01:11;-6.90;99.90
18384;DHT22;9318;48.644;9.456;2022-12-18T07:03:39;-6.40;99.90
18384;DHT22;9318;48.644;9.456;2022-12-18T07:06:13;-6.10;99.90
18384;DHT22;9318;48.644;9.456;2022-12-18T07:08:40;-6.00;99.90
18384;DHT22;9318;48.644;9.456;2022-12-18T07:11:07;-6.10;99.90
18384;DHT22;9318;48.644;9.456;2022-12-18T07:13:34;-6.10;99.90
18384;DHT22;9318;48.644;9.456;2022-12-18T07:16:07;-6.30;99.90
18384;DHT22;9318;48.644;9.456;2022-12-18T07:18:34;-6.30;99.90
18384;DHT22;9318;48.644;9.456;2022-12-18T07:21:04;-6.30;99.90
18384;DHT22;9318;48.644;9.456;2022-12-18T07:23:34;-6.40;99.90
18384;DHT22;9318;48.644;9.456;2022-12-18T07:26:03;-6.40;99.90
18384;DHT22;9318;48.644;9.456;2022-12-18T07:28:31;-6.70;99.90
18384;DHT22;9318;48.644;9.456;2022-12-18T07:30:58;-6.70;99.90
18384;DHT22;9318;48.644;9.456;2022-12-18T07:33:25;-7.10;99.90
18384;DHT22;9318;48.644;9.456;2022-12-18T07:35:52;-7.30;99.90
18384;DHT22;9318;48.644;9.456;2022-12-18T07:38:19;-7.20;99.90
18384;DHT22;9318;48.644;9.456;2022-12-18T07:40:47;-7.10;99.90
18384;DHT22;9318;48.644;9.456;2022-12-18T07:43:15;-7.00;99.90
18384;DHT22;9318;48.644;9.456;2022-12-18T07:45:42;-6.70;99.90
18384;DHT22;9318;48.644;9.456;2022-12-18T07:48:10;-6.60;99.90
18384;DHT22;9318;48.644;9.456;2022-12-18T07:50:37;-6.60;99.90
18384;DHT22;9318;48.644;9.456;2022-12-18T07:53:05;-6.80;99.90
18384;DHT22;9318;48.644;9.456;2022-12-18T07:55:32;-6.80;99.90
18384;DHT22;9318;48.644;9.456;2022-12-18T07:58:02;-6.80;99.90
18384;DHT22;9318;48.644;9.456;2022-12-18T08:00:30;-6.50;99.90
18384;DHT22;9318;48.644;9.456;2022-12-18T08:02:58;-6.20;99.90
18384;DHT22;9318;48.644;9.456;2022-12-18T08:05:25;-5.90;99.90
18384;DHT22;9318;48.644;9.456;2022-12-18T08:07:52;-5.90;99.90
18384;DHT22;9318;48.644;9.456;2022-12-18T08:10:20;-5.80;99.90
18384;DHT22;9318;48.644;9.456;2022-12-18T08:12:49;-6.00;99.90
18384;DHT22;9318;48.644;9.456;2022-12-18T08:15:18;-5.90;99.90
18384;DHT22;9318;48.644;9.456;2022-12-18T08:17:45;-5.90;99.90
18384;DHT22;9318;48.644;9.456;2022-12-18T08:20:13;-6.00;99.90
18384;DHT22;9318;48.644;9.456;2022-12-18T08:22:41;-5.90;99.90
18384;DHT22;9318;48.644;9.456;2022-12-18T08:25:08;-6.20;99.90
18384;DHT22;9318;48.644;9.456;2022-12-18T08:27:36;-6.20;99.90
18384;DHT22;9318;48.644;9.456;2022-12-18T08:30:04;-6.30;99.90
18384;DHT22;9318;48.644;9.456;2022-12-18T08:32:33;-6.10;99.90
18384;DHT22;9318;48.644;9.456;2022-12-18T08:35:00;-6.10;99.90
18384;DHT22;9318;48.644;9.456;2022-12-18T08:37:27;-5.80;99.90
18384;DHT22;9318;48.644;9.456;2022-12-18T08:39:54;-5.10;99.90
18384;DHT22;9318;48.644;9.456;2022-12-18T08:42:21;-4.80;99.90
18384;DHT22;9318;48.644;9.456;2022-12-18T08:45:07;-5.10;99.90
18384;DHT22;9318;48.644;9.456;2022-12-18T08:47:36;-5.20;99.90
18384;DHT22;9318;48.644;9.456;2022-12-18T08:50:03;-5.30;99.90
18384;DHT22;9318;48.644;9.456;2022-12-18T08:52:32;-5.30;99.90
18384;DHT22;9318;48.644;9.456;2022-12-18T08:54:59;-5.30;99.90
18384;DHT22;9318;48.644;9.456;2022-12-18T08:57:26;-5.20;99.90
18384;DHT22;9318;48.644;9.456;2022-12-18T08:59:53;-4.80;99.90
18384;DHT22;9318;48.644;9.456;2022-12-18T09:02:20;-4.90;99.90
18384;DHT22;9318;48.644;9.456;2022-12-18T09:04:48;-4.60;99.90
18384;DHT22;9318;48.644;9.456;2022-12-18T09:07:16;-4.30;99.90
18384;DHT22;9318;48.644;9.456;2022-12-18T09:09:43;-4.10;99.90
18384;DHT22;9318;48.644;9.456;2022-12-18T09:12:11;-3.90;99.90
18384;DHT22;9318;48.644;9.456;2022-12-18T09:14:38;-3.30;99.90
18384;DHT22;9318;48.644;9.456;2022-12-18T09:17:05;-1.90;99.90
18384;DHT22;9318;48.644;9.456;2022-12-18T09:19:32;-1.00;99.90
18384;DHT22;9318;48.644;9.456;2022-12-18T09:22:00;-1.40;99.90
18384;DHT22;9318;48.644;9.456;2022-12-18T09:24:27;-2.00;99.90
18384;DHT22;9318;48.644;9.456;2022-12-18T09:26:54;-2.30;99.90
18384;DHT22;9318;48.644;9.456;2022-12-18T09:29:21;-2.50;99.90
18384;DHT22;9318;48.644;9.456;2022-12-18T09:31:48;-2.90;99.90
18384;DHT22;9318;48.644;9.456;2022-12-18T09:34:16;-2.80;99.90
18384;DHT22;9318;48.644;9.456;2022-12-18T09:36:44;-1.80;99.90
18384;DHT22;9318;48.644;9.456;2022-12-18T09:39:12;-1.80;99.90
18384;DHT22;9318;48.644;9.456;2022-12-18T09:41:45;-1.50;99.90
18384;DHT22;9318;48.644;9.456;2022-12-18T09:44:20;-1.70;99.90
18384;DHT22;9318;48.644;9.456;2022-12-18T09:46:52;-1.70;99.90
18384;DHT22;9318;48.644;9.456;2022-12-18T09:49:22;-1.80;99.90
18384;DHT22;9318;48.644;9.456;2022-12-18T09:51:54;-1.80;99.90
18384;DHT22;9318;48.644;9.456;2022-12-18T09:54:26;-2.00;99.90
18384;DHT22;9318;48.644;9.456;2022-12-18T09:56:58;-1.50;99.90
18384;DHT22;9318;48.644;9.456;2022-12-18T09:59:29;-1.00;99.90
18384;DHT22;9318;48.644;9.456;2022-12-18T10:01:57;-0.30;99.90
18384;DHT22;9318;48.644;9.456;2022-12-18T10:04:24;0.40;99.90
18384;DHT22;9318;48.644;9.456;2022-12-18T10:06:57;0.80;99.90
18384;DHT22;9318;48.644;9.456;2022-12-18T10:09:35;1.50;99.90
18384;DHT22;9318;48.644;9.456;2022-12-18T10:12:11;1.90;99.90
18384;DHT22;9318;48.644;9.456;2022-12-18T10:14:46;1.30;99.90
18384;DHT22;9318;48.644;9.456;2022-12-18T10:17:24;0.50;99.90
18384;DHT22;9318;48.644;9.456;2022-12-18T10:19:56;0.10;99.90
18384;DHT22;9318;48.644;9.456;2022-12-18T10:22:38;0.40;99.90
18384;DHT22;9318;48.644;9.456;2022-12-18T10:25:17;1.00;99.90
18384;DHT22;9318;48.644;9.456;2022-12-18T10:27:46;1.50;99.90
18384;DHT22;9318;48.644;9.456;2022-12-18T10:30:15;1.70;99.90
18384;DHT22;9318;48.644;9.456;2022-12-18T10:32:43;1.40;99.90
18384;DHT22;9318;48.644;9.456;2022-12-18T10:35:17;1.10;99.90
18384;DHT22;9318;48.644;9.456;2022-12-18T10:38:04;1.30;99.90
18384;DHT22;9318;48.644;9.456;2022-12-18T10:40:36;2.90;99.90
18384;DHT22;9318;48.644;9.456;2022-12-18T10:43:15;4.50;99.90
18384;DHT22;9318;48.644;9.456;2022-12-18T10:46:04;6.30;99.90
18384;DHT22;9318;48.644;9.456;2022-12-18T10:48:34;7.70;95.40
18384;DHT22;9318;48.644;9.456;2022-12-18T10:51:03;8.90;94.90
18384;DHT22;9318;48.644;9.456;2022-12-18T10:53:31;9.30;92.10
18384;DHT22;9318;48.644;9.456;2022-12-18T10:56:03;9.40;91.30
18384;DHT22;9318;48.644;9.456;2022-12-18T10:58:33;9.90;90.40
18384;DHT22;9318;48.644;9.456;2022-12-18T11:01:10;9.90;90.40
18384;DHT22;9318;48.644;9.456;2022-12-18T11:03:39;9.40;89.50
18384;DHT22;9318;48.644;9.456;2022-12-18T11:06:09;9.10;90.20
18384;DHT22;9318;48.644;9.456;2022-12-18T11:08:38;8.20;90.90
18384;DHT22;9318;48.644;9.456;2022-12-18T11:11:20;7.20;92.70
18384;DHT22;9318;48.644;9.456;2022-12-18T11:14:01;6.90;92.30
18384;DHT22;9318;48.644;9.456;2022-12-18T11:16:32;6.30;92.60
18384;DHT22;9318;48.644;9.456;2022-12-18T11:19:21;5.70;93.20
18384;DHT22;9318;48.644;9.456;2022-12-18T11:21:50;4.90;94.10
18384;DHT22;9318;48.644;9.456;2022-12-18T11:24:29;5.10;95.60
18384;DHT22;9318;48.644;9.456;2022-12-18T11:27:01;5.00;95.10
18384;DHT22;9318;48.644;9.456;2022-12-18T11:29:33;4.80;93.80
18384;DHT22;9318;48.644;9.456;2022-12-18T11:32:25;4.50;95.50
18384;DHT22;9318;48.644;9.456;2022-12-18T11:34:59;4.60;96.70
18384;DHT22;9318;48.644;9.456;2022-12-18T11:37:28;4.50;97.30
18384;DHT22;9318;48.644;9.456;2022-12-18T11:39:59;5.00;97.50
18384;DHT22;9318;48.644;9.456;2022-12-18T11:42:34;5.80;96.80
18384;DHT22;9318;48.644;9.456;2022-12-18T11:45:18;6.50;95.90
18384;DHT22;9318;48.644;9.456;2022-12-18T11:47:52;6.90;95.60
18384;DHT22;9318;48.644;9.456;2022-12-18T11:50:24;7.10;95.80
18384;DHT22;9318;48.644;9.456;2022-12-18T11:52:52;7.30;95.50
18384;DHT22;9318;48.644;9.456;2022-12-18T11:55:31;7.20;95.30
18384;DHT22;9318;48.644;9.456;2022-12-18T11:58:07;7.60;95.60
18384;DHT22;9318;48.644;9.456;2022-12-18T12:00:42;7.60;94.40
18384;DHT22;9318;48.644;9.456;2022-12-18T12:06:28;7.30;94.60
18384;DHT22;9318;48.644;9.456;2022-12-18T12:09:05;7.10;95.20
18384;DHT22;9318;48.644;9.456;2022-12-18T12:11:45;6.70;95.40
18384;DHT22;9318;48.644;9.456;2022-12-18T12:14:32;6.40;96.30
18384;DHT22;9318;48.644;9.456;2022-12-18T12:17:03;6.00;97.10
18384;DHT22;9318;48.644;9.456;2022-12-18T12:19:44;5.90;97.90
18384;DHT22;9318;48.644;9.456;2022-12-18T12:22:20;6.00;98.20
18384;DHT22;9318;48.644;9.456;2022-12-18T12:24:59;5.90;97.90
18384;DHT22;9318;48.644;9.456;2022-12-18T12:27:35;5.20;98.90
18384;DHT22;9318;48.644;9.456;2022-12-18T12:30:10;5.00;99.90
18384;DHT22;9318;48.644;9.456;2022-12-18T12:32:52;4.90;99.80
18384;DHT22;9318;48.644;9.456;2022-12-18T12:35:32;4.90;99.90
18384;DHT22;9318;48.644;9.456;2022-12-18T12:38:08;4.80;99.80
18384;DHT22;9318;48.644;9.456;2022-12-18T12:40:39;4.60;99.90
18384;DHT22;9318;48.644;9.456;2022-12-18T12:43:20;4.20;99.90
18384;DHT22;9318;48.644;9.456;2022-12-18T12:45:52;3.80;99.90
18384;DHT22;9318;48.644;9.456;2022-12-18T12:48:28;3.40;99.90
18384;DHT22;9318;48.644;9.456;2022-12-18T12:51:01;3.10;99.90
18384;DHT22;9318;48.644;9.456;2022-12-18T12:53:32;2.90;99.90
18384;DHT22;9318;48.644;9.456;2022-12-18T12:56:02;2.90;99.90
18384;DHT22;9318;48.644;9.456;2022-12-18T12:58:36;2.70;99.90
18384;DHT22;9318;48.644;9.456;2022-12-18T13:01:14;2.80;99.90
18384;DHT22;9318;48.644;9.456;2022-12-18T13:03:52;2.80;99.90
18384;DHT22;9318;48.644;9.456;2022-12-18T13:06:32;2.80;99.90
18384;DHT22;9318;48.644;9.456;2022-12-18T13:09:01;2.90;99.90
18384;DHT22;9318;48.644;9.456;2022-12-18T13:11:32;3.00;99.90
18384;DHT22;9318;48.644;9.456;2022-12-18T13:14:28;3.00;99.90
18384;DHT22;9318;48.644;9.456;2022-12-18T13:20:12;3.20;99.90
18384;DHT22;9318;48.644;9.456;2022-12-18T13:22:43;3.10;99.90
18384;DHT22;9318;48.644;9.456;2022-12-18T13:25:29;3.10;99.90
18384;DHT22;9318;48.644;9.456;2022-12-18T13:28:09;3.50;99.90
18384;DHT22;9318;48.644;9.456;2022-12-18T13:30:54;3.40;99.90
18384;DHT22;9318;48.644;9.456;2022-12-18T13:33:50;3.40;99.90
18384;DHT22;9318;48.644;9.456;2022-12-18T13:36:30;3.70;99.90
18384;DHT22;9318;48.644;9.456;2022-12-18T13:45:01;3.50;99.90
18384;DHT22;9318;48.644;9.456;2022-12-18T13:47:49;3.50;99.90
18384;DHT22;9318;48.644;9.456;2022-12-18T13:50:23;3.40;99.90
18384;DHT22;9318;48.644;9.456;2022-12-18T13:52:51;3.20;99.90
18384;DHT22;9318;48.644;9.456;2022-12-18T13:55:21;3.10;99.90
18384;DHT22;9318;48.644;9.456;2022-12-18T13:57:49;2.70;99.90
18384;DHT22;9318;48.644;9.456;2022-12-18T14:00:25;2.50;99.90
18384;DHT22;9318;48.644;9.456;2022-12-18T14:02:54;2.30;99.90
18384;DHT22;9318;48.644;9.456;2022-12-18T14:05:24;2.40;99.90
18384;DHT22;9318;48.644;9.456;2022-12-18T14:07:53;2.30;99.90
18384;DHT22;9318;48.644;9.456;2022-12-18T14:10:21;2.40;99.90
18384;DHT22;9318;48.644;9.456;2022-12-18T14:12:50;2.20;99.90
18384;DHT22;9318;48.644;9.456;2022-12-18T14:15:30;2.10;99.90
18384;DHT22;9318;48.644;9.456;2022-12-18T14:18:00;2.10;99.90
18384;DHT22;9318;48.644;9.456;2022-12-18T14:20:31;2.00;99.90
18384;DHT22;9318;48.644;9.456;2022-12-18T14:23:00;1.90;99.90
18384;DHT22;9318;48.644;9.456;2022-12-18T14:25:28;1.80;99.90
18384;DHT22;9318;48.644;9.456;2022-12-18T14:28:08;1.70;99.90
18384;DHT22;9318;48.644;9.456;2022-12-18T14:30:39;1.70;99.90
18384;DHT22;9318;48.644;9.456;2022-12-18T14:33:10;1.50;99.90
18384;DHT22;9318;48.644;9.456;2022-12-18T14:35:41;1.40;99.90
18384;DHT22;9318;48.644;9.456;2022-12-18T14:38:21;1.40;99.90
18384;DHT22;9318;48.644;9.456;2022-12-18T14:40:52;1.30;99.90
18384;DHT22;9318;48.644;9.456;2022-12-18T14:43:20;1.00;99.90
18384;DHT22;9318;48.644;9.456;2022-12-18T14:45:47;0.70;99.90
18384;DHT22;9318;48.644;9.456;2022-12-18T14:48:17;0.70;99.90
18384;DHT22;9318;48.644;9.456;2022-12-18T14:50:55;0.80;99.90
18384;DHT22;9318;48.644;9.456;2022-12-18T14:53:34;0.80;99.90
18384;DHT22;9318;48.644;9.456;2022-12-18T14:56:03;0.90;99.90
18384;DHT22;9318;48.644;9.456;2022-12-18T14:58:31;1.10;99.90
18384;DHT22;9318;48.644;9.456;2022-12-18T15:00:59;1.10;99.90
18384;DHT22;9318;48.644;9.456;2022-12-18T15:03:26;1.10;99.90
18384;DHT22;9318;48.644;9.456;2022-12-18T15:05:55;1.00;99.90
18384;DHT22;9318;48.644;9.456;2022-12-18T15:08:31;0.90;99.90
18384;DHT22;9318;48.644;9.456;2022-12-18T15:11:01;0.70;99.90
18384;DHT22;9318;48.644;9.456;2022-12-18T15:13:28;0.60;99.90
18384;DHT22;9318;48.644;9.456;2022-12-18T15:15:56;0.60;99.90
18384;DHT22;9318;48.644;9.456;2022-12-18T15:18:30;0.50;99.90
18384;DHT22;9318;48.644;9.456;2022-12-18T15:21:08;0.30;99.90
18384;DHT22;9318;48.644;9.456;2022-12-18T15:23:38;0.10;99.90
18384;DHT22;9318;48.644;9.456;2022-12-18T15:26:13;0.00;99.90
18384;DHT22;9318;48.644;9.456;2022-12-18T15:28:44;0.10;99.90
18384;DHT22;9318;48.644;9.456;2022-12-18T15:31:32;0.00;99.90
18384;DHT22;9318;48.644;9.456;2022-12-18T15:34:10;0.00;99.90
18384;DHT22;9318;48.644;9.456;2022-12-18T15:36:40;0.00;99.90
18384;DHT22;9318;48.644;9.456;2022-12-18T15:39:10;-0.10;99.90
18384;DHT22;9318;48.644;9.456;2022-12-18T15:41:38;0.00;99.90
18384;DHT22;9318;48.644;9.456;2022-12-18T15:44:22;-0.10;99.90
18384;DHT22;9318;48.644;9.456;2022-12-18T15:46:48;-0.10;99.90
18384;DHT22;9318;48.644;9.456;2022-12-18T15:49:15;-0.20;99.90
18384;DHT22;9318;48.644;9.456;2022-12-18T15:51:44;-0.20;99.90
18384;DHT22;9318;48.644;9.456;2022-12-18T15:54:15;-0.20;99.90
18384;DHT22;9318;48.644;9.456;2022-12-18T15:57:03;-0.20;99.90
18384;DHT22;9318;48.644;9.456;2022-12-18T15:59:48;0.00;99.90
18384;DHT22;9318;48.644;9.456;2022-12-18T16:02:17;0.00;99.90
18384;DHT22;9318;48.644;9.456;2022-12-18T16:04:44;-0.10;99.90
18384;DHT22;9318;48.644;9.456;2022-12-18T16:07:14;-0.20;99.90
18384;DHT22;9318;48.644;9.456;2022-12-18T16:09:41;-0.20;99.90
18384;DHT22;9318;48.644;9.456;2022-12-18T16:12:15;-0.30;99.90
18384;DHT22;9318;48.644;9.456;2022-12-18T16:14:43;-0.40;99.90
18384;DHT22;9318;48.644;9.456;2022-12-18T16:17:11;-0.30;99.90
18384;DHT22;9318;48.644;9.456;2022-12-18T16:19:39;-0.20;99.90
18384;DHT22;9318;48.644;9.456;2022-12-18T16:22:08;-0.10;99.90
18384;DHT22;9318;48.644;9.456;2022-12-18T16:24:43;0.00;99.90
18384;DHT22;9318;48.644;9.456;2022-12-18T16:27:11;0.20;99.90
18384;DHT22;9318;48.644;9.456;2022-12-18T16:29:38;0.40;99.90
18384;DHT22;9318;48.644;9.456;2022-12-18T16:32:05;0.60;99.90